Time;durP1;ratioP1;P1;durP2;ratioP2;P2;SDS_P1;SDS_P2;PMS_P1;PMS_P2;Temp;Humidity;BMP_temperature;BMP_pressure;BME280_temperature;BME280_humidity;BME280_pressure;Samples;Min_cycle;Max_cycle;Signal;HPM_P1;HPM_P2
2021/06/28 00:01:28;;;;;;;6.30;5.70;;;16.30;83.20;;;;;;4953778;29;20200;-86
2021/06/28 00:03:54;;;;;;;6.65;5.22;;;16.20;83.40;;;;;;4953286;29;20213;-86
2021/06/28 00:06:20;;;;;;;8.27;5.97;;;16.20;83.40;;;;;;4952281;28;20203;-86
2021/06/28 00:08:46;;;;;;;7.57;5.63;;;16.20;83.60;;;;;;4952925;29;20176;-86
2021/06/28 00:11:13;;;;;;;9.02;5.93;;;16.10;83.80;;;;;;4954094;28;20187;-86
2021/06/28 00:13:41;;;;;;;13.27;5.70;;;16.20;83.70;;;;;;4952876;29;20187;-86
2021/06/28 00:16:07;;;;;;;7.30;5.53;;;16.30;83.40;;;;;;4954065;28;20188;-85
2021/06/28 00:18:34;;;;;;;7.82;5.50;;;16.30;83.20;;;;;;4953882;29;20175;-86
2021/06/28 00:20:59;;;;;;;8.27;5.65;;;16.30;83.00;;;;;;4968711;28;20221;-85
2021/06/28 00:23:25;;;;;;;8.15;5.93;;;16.20;83.20;;;;;;4953908;28;20181;-85
2021/06/28 00:25:51;;;;;;;11.63;5.57;;;16.10;83.50;;;;;;4953749;29;20210;-85
2021/06/28 00:28:17;;;;;;;7.30;5.72;;;16.00;83.70;;;;;;4952600;29;20175;-85
2021/06/28 00:30:44;;;;;;;6.93;5.50;;;16.00;83.80;;;;;;4952429;29;20667;-85
2021/06/28 00:33:14;;;;;;;5.65;5.05;;;16.10;83.70;;;;;;4952569;29;20171;-86
2021/06/28 00:35:40;;;;;;;7.22;5.93;;;16.10;83.50;;;;;;4952530;29;20678;-86
2021/06/28 00:38:06;;;;;;;6.80;5.40;;;16.10;83.30;;;;;;4954052;28;20544;-86
2021/06/28 00:40:33;;;;;;;12.43;5.95;;;16.10;83.20;;;;;;4952356;28;20210;-86
2021/06/28 00:42:59;;;;;;;6.47;4.72;;;16.20;82.90;;;;;;4953625;28;20176;-86
2021/06/28 00:45:30;;;;;;;8.70;5.22;;;16.20;82.70;;;;;;4952324;29;20208;-86
2021/06/28 00:48:06;;;;;;;7.53;5.50;;;16.20;82.40;;;;;;4952411;29;20580;-86
2021/06/28 00:50:33;;;;;;;6.72;5.05;;;16.10;82.70;;;;;;4953449;29;20198;-86
2021/06/28 00:53:03;;;;;;;8.80;6.05;;;16.00;83.10;;;;;;4952223;29;20172;-86
2021/06/28 00:55:29;;;;;;;8.18;5.97;;;15.80;83.70;;;;;;4952240;29;20180;-86
2021/06/28 00:57:55;;;;;;;10.02;6.38;;;15.60;84.30;;;;;;4952187;29;20182;-86
2021/06/28 01:00:21;;;;;;;8.97;6.13;;;15.40;85.00;;;;;;4952124;29;20238;-86
2021/06/28 01:02:48;;;;;;;9.53;7.03;;;15.30;85.60;;;;;;4953369;28;20321;-86
2021/06/28 01:05:20;;;;;;;8.93;6.33;;;15.20;85.90;;;;;;4953250;28;20200;-86
2021/06/28 01:07:46;;;;;;;11.17;7.07;;;15.10;86.30;;;;;;4953289;28;20158;-86
2021/06/28 01:10:14;;;;;;;9.47;6.87;;;15.10;86.50;;;;;;4951936;29;20199;-86
2021/06/28 01:12:44;;;;;;;8.97;7.10;;;15.00;86.80;;;;;;4953188;28;20329;-86
2021/06/28 01:15:11;;;;;;;8.23;7.17;;;15.00;87.00;;;;;;4953124;28;20180;-86
2021/06/28 01:17:38;;;;;;;14.23;7.20;;;15.00;87.10;;;;;;4951712;29;20184;-86
2021/06/28 01:20:10;;;;;;;13.47;7.43;;;14.90;87.20;;;;;;4952138;28;20212;-85
2021/06/28 01:22:40;;;;;;;17.07;7.03;;;14.80;87.10;;;;;;4953105;28;20174;-85
2021/06/28 01:25:07;;;;;;;17.57;8.10;;;14.80;87.10;;;;;;4952883;28;20236;-85
2021/06/28 01:27:34;;;;;;;18.13;8.33;;;14.70;87.60;;;;;;4952945;28;20171;-85
2021/06/28 01:29:59;;;;;;;20.97;8.50;;;14.60;87.80;;;;;;4967759;28;20203;-86
2021/06/28 01:32:26;;;;;;;24.67;7.80;;;14.50;88.00;;;;;;4951746;29;20182;-86
2021/06/28 01:34:52;;;;;;;19.53;8.13;;;14.50;88.20;;;;;;4951648;29;20179;-86
2021/06/28 01:37:18;;;;;;;27.67;8.47;;;14.50;88.20;;;;;;4951637;29;20229;-86
2021/06/28 01:39:44;;;;;;;28.33;8.97;;;14.40;88.20;;;;;;4967485;28;20203;-86
2021/06/28 01:42:10;;;;;;;15.37;8.07;;;14.40;88.40;;;;;;4951547;29;20172;-86
2021/06/28 01:44:36;;;;;;;18.63;8.53;;;14.40;88.50;;;;;;4951546;28;20175;-86
2021/06/28 01:47:02;;;;;;;20.60;8.03;;;14.30;88.70;;;;;;4952854;29;20214;-86
2021/06/28 01:49:28;;;;;;;27.50;8.70;;;14.30;88.70;;;;;;4952548;28;20238;-86
2021/06/28 01:51:54;;;;;;;22.93;8.13;;;14.30;88.80;;;;;;4951427;29;20656;-86
2021/06/28 01:54:20;;;;;;;22.00;8.93;;;14.20;89.00;;;;;;4952903;28;20179;-86
2021/06/28 01:56:45;;;;;;;25.77;8.83;;;14.30;89.00;;;;;;4952860;29;20186;-86
2021/06/28 01:59:11;;;;;;;21.03;8.30;;;14.20;88.90;;;;;;4951205;29;20649;-86
2021/06/28 02:01:38;;;;;;;26.63;9.00;;;14.20;89.00;;;;;;4952547;29;20184;-85
2021/06/28 02:04:04;;;;;;;21.87;8.23;;;14.20;89.20;;;;;;4951309;29;20179;-86
2021/06/28 02:06:30;;;;;;;25.70;8.33;;;14.10;89.20;;;;;;4951140;29;20238;-86
2021/06/28 02:08:55;;;;;;;26.97;9.43;;;14.00;89.30;;;;;;4952621;29;20183;-86
2021/06/28 02:11:21;;;;;;;20.33;10.57;;;14.00;89.50;;;;;;4951046;29;20782;-85
2021/06/28 02:13:46;;;;;;;21.30;9.37;;;14.10;89.60;;;;;;4951191;29;20187;-85
2021/06/28 02:16:12;;;;;;;35.90;10.73;;;14.20;89.70;;;;;;4951073;29;20613;-85
2021/06/28 02:18:38;;;;;;;19.57;9.47;;;14.10;89.60;;;;;;4951086;29;20230;-86
2021/06/28 02:21:04;;;;;;;28.03;9.83;;;14.10;89.60;;;;;;4950846;29;20226;-86
2021/06/28 02:23:35;;;;;;;28.20;9.33;;;14.10;89.50;;;;;;4951032;29;20188;-86
2021/06/28 02:26:05;;;;;;;29.00;10.53;;;14.10;89.80;;;;;;4952280;28;20221;-85
2021/06/28 02:28:34;;;;;;;25.83;9.77;;;14.10;89.90;;;;;;4952550;28;20178;-85
2021/06/28 02:31:00;;;;;;;27.67;11.27;;;14.10;90.00;;;;;;4953046;28;20245;-86
2021/06/28 02:33:27;;;;;;;21.40;10.73;;;14.20;90.00;;;;;;4954349;29;20264;-86
2021/06/28 02:35:53;;;;;;;22.93;11.20;;;14.20;90.00;;;;;;4955569;28;20281;-86
2021/06/28 02:38:19;;;;;;;24.30;11.40;;;14.20;90.20;;;;;;4954277;28;20639;-86
2021/06/28 02:40:44;;;;;;;41.43;12.33;;;14.30;90.30;;;;;;4954161;29;20210;-86
2021/06/28 02:43:11;;;;;;;30.50;12.53;;;14.30;90.30;;;;;;4955699;29;20649;-86
2021/06/28 02:45:37;;;;;;;21.23;13.60;;;14.40;90.30;;;;;;4954067;29;20207;-86
2021/06/28 02:48:04;;;;;;;27.67;12.63;;;14.40;90.30;;;;;;4954225;29;20186;-86
2021/06/28 02:50:29;;;;;;;22.07;13.60;;;14.50;90.40;;;;;;4954114;29;20203;-86
2021/06/28 02:52:55;;;;;;;22.63;14.93;;;14.50;90.50;;;;;;4954013;29;20233;-85
2021/06/28 02:55:20;;;;;;;21.40;12.70;;;14.50;90.60;;;;;;4955257;29;20190;-86
2021/06/28 02:57:46;;;;;;;22.67;13.57;;;14.50;90.50;;;;;;4953976;28;20183;-85
2021/06/28 03:00:15;;;;;;;24.47;12.60;;;14.50;90.50;;;;;;4953893;29;20207;-86
2021/06/28 03:02:41;;;;;;;27.10;13.03;;;14.60;90.30;;;;;;4954749;29;20183;-86
2021/06/28 03:05:09;;;;;;;26.33;12.90;;;14.60;90.50;;;;;;4953740;29;20726;-86
2021/06/28 03:07:35;;;;;;;43.33;14.80;;;14.60;90.50;;;;;;4955118;29;20535;-86
2021/06/28 03:10:04;;;;;;;28.57;13.30;;;14.50;90.20;;;;;;4954537;29;20210;-86
2021/06/28 03:12:29;;;;;;;36.77;14.80;;;14.50;90.30;;;;;;4954937;28;20214;-86
2021/06/28 03:14:55;;;;;;;37.47;15.73;;;14.40;90.40;;;;;;4953843;29;20545;-85
2021/06/28 03:17:21;;;;;;;21.60;14.60;;;14.50;90.60;;;;;;4953667;29;20222;-85
2021/06/28 03:19:46;;;;;;;32.47;14.97;;;14.50;90.60;;;;;;4953370;29;20260;-86
2021/06/28 03:22:12;;;;;;;26.77;15.27;;;14.50;90.50;;;;;;4953632;29;20238;-85
2021/06/28 03:24:38;;;;;;;33.93;14.83;;;14.60;90.50;;;;;;4953565;29;20266;-85
2021/06/28 03:27:04;;;;;;;46.97;14.20;;;14.60;90.30;;;;;;4955297;29;20199;-85
2021/06/28 03:29:30;;;;;;;39.63;15.27;;;14.60;90.10;;;;;;4953414;29;20333;-86
2021/06/28 03:31:55;;;;;;;38.60;14.47;;;14.50;90.20;;;;;;4953480;29;20207;-86
2021/06/28 03:34:21;;;;;;;34.33;13.57;;;14.50;90.20;;;;;;4954741;29;20219;-85
2021/06/28 03:36:47;;;;;;;28.33;13.47;;;14.40;90.30;;;;;;4954626;29;20176;-85
2021/06/28 03:39:12;;;;;;;43.20;14.10;;;14.30;90.40;;;;;;4954536;29;20175;-86
2021/06/28 03:41:38;;;;;;;48.63;14.63;;;14.30;90.60;;;;;;4953516;28;20179;-86
2021/06/28 03:44:05;;;;;;;35.67;15.70;;;14.30;90.70;;;;;;4953339;29;20186;-85
2021/06/28 03:46:31;;;;;;;47.77;13.73;;;14.30;90.70;;;;;;4953171;29;20199;-85
2021/06/28 03:48:56;;;;;;;48.77;16.23;;;14.40;90.60;;;;;;4954530;29;20176;-87
2021/06/28 03:51:22;;;;;;;45.47;15.93;;;14.50;90.40;;;;;;4953091;29;20294;-85
2021/06/28 03:53:48;;;;;;;41.03;14.93;;;14.60;90.40;;;;;;4953195;29;20270;-85
2021/06/28 03:56:14;;;;;;;54.57;17.03;;;14.70;90.40;;;;;;4953081;29;20184;-86
2021/06/28 03:58:40;;;;;;;46.40;16.93;;;14.70;90.50;;;;;;4953233;29;20691;-85
2021/06/28 04:01:07;;;;;;;38.40;16.67;;;14.80;90.50;;;;;;4952925;29;20199;-86
2021/06/28 04:03:35;;;;;;;40.27;16.30;;;14.90;90.50;;;;;;4953013;29;20183;-85
2021/06/28 04:06:04;;;;;;;33.77;17.57;;;14.90;90.50;;;;;;4953410;29;20203;-86
2021/06/28 04:08:31;;;;;;;34.73;17.27;;;15.00;90.60;;;;;;4952916;29;20187;-85
2021/06/28 04:10:56;;;;;;;37.33;18.17;;;15.10;90.70;;;;;;4954126;28;20206;-86
2021/06/28 04:13:22;;;;;;;28.67;18.60;;;15.30;90.70;;;;;;4954384;29;20176;-85
2021/06/28 04:15:48;;;;;;;40.77;21.20;;;15.40;90.70;;;;;;4954241;29;20191;-85
2021/06/28 04:18:14;;;;;;;31.57;20.13;;;15.50;90.60;;;;;;4952851;29;20184;-85
2021/06/28 04:20:39;;;;;;;33.00;20.40;;;15.60;90.60;;;;;;4987236;23;20739;-90
2021/06/28 04:23:06;;;;;;;31.70;19.13;;;15.70;90.60;;;;;;4977300;28;20177;-90
2021/06/28 04:25:32;;;;;;;38.50;19.00;;;15.70;90.40;;;;;;4977039;28;20209;-90
2021/06/28 04:27:57;;;;;;;34.63;20.37;;;15.80;90.40;;;;;;4994266;28;20245;-90
2021/06/28 04:30:23;;;;;;;39.47;20.93;;;15.80;90.40;;;;;;4976465;28;20194;-90
2021/06/28 04:32:50;;;;;;;30.63;18.53;;;15.90;90.40;;;;;;4994438;28;20173;-90
2021/06/28 04:35:18;;;;;;;29.33;19.53;;;15.90;90.50;;;;;;4994027;28;20227;-90
2021/06/28 04:37:45;;;;;;;45.40;20.63;;;16.00;90.40;;;;;;4977348;28;20182;-90
2021/06/28 04:40:13;;;;;;;39.87;20.17;;;16.10;90.50;;;;;;4994106;28;20198;-90
2021/06/28 04:42:39;;;;;;;34.03;20.07;;;16.10;90.50;;;;;;4976082;28;20189;-90
2021/06/28 04:45:06;;;;;;;35.63;20.13;;;16.10;90.60;;;;;;4976572;28;20181;-91
2021/06/28 04:47:32;;;;;;;33.80;21.60;;;16.20;90.60;;;;;;4975974;28;20175;-91
2021/06/28 04:50:02;;;;;;;34.13;22.13;;;16.30;90.60;;;;;;4975882;28;20194;-90
2021/06/28 04:52:29;;;;;;;35.53;20.80;;;16.40;90.50;;;;;;4993520;28;20177;-90
2021/06/28 04:54:54;;;;;;;34.60;22.23;;;16.50;90.60;;;;;;4993593;28;20630;-91
2021/06/28 04:57:20;;;;;;;36.20;22.13;;;16.50;90.60;;;;;;4976041;28;20185;-90
2021/06/28 04:59:47;;;;;;;41.57;21.63;;;16.60;90.80;;;;;;4993016;28;20210;-91
2021/06/28 05:02:14;;;;;;;33.10;21.87;;;16.70;90.70;;;;;;4976592;28;20243;-91
2021/06/28 05:04:39;;;;;;;34.33;21.40;;;16.80;90.90;;;;;;4993181;28;20174;-90
2021/06/28 05:07:05;;;;;;;28.27;21.10;;;16.90;90.70;;;;;;4975631;28;20232;-90
2021/06/28 05:09:31;;;;;;;29.75;21.83;;;17.00;90.30;;;;;;4993231;28;20178;-90
2021/06/28 05:11:56;;;;;;;27.03;20.73;;;17.00;90.50;;;;;;4975743;28;20178;-90
2021/06/28 05:14:22;;;;;;;28.38;20.52;;;17.20;90.10;;;;;;4976913;28;20178;-91
2021/06/28 05:16:48;;;;;;;29.65;20.20;;;17.20;89.50;;;;;;4976293;28;20641;-90
2021/06/28 05:19:13;;;;;;;26.77;20.30;;;17.20;89.60;;;;;;4993043;28;20260;-90
2021/06/28 05:21:39;;;;;;;21.63;18.73;;;17.30;89.60;;;;;;4992599;28;20213;-90
2021/06/28 05:24:05;;;;;;;26.00;19.67;;;17.40;89.30;;;;;;4993048;28;20223;-89
2021/06/28 05:26:30;;;;;;;29.23;20.50;;;17.50;89.60;;;;;;4975136;28;20209;-90
2021/06/28 05:28:56;;;;;;;29.10;19.17;;;17.60;89.50;;;;;;4975145;28;20192;-90
2021/06/28 05:31:22;;;;;;;23.85;19.48;;;17.80;88.90;;;;;;4992668;28;20190;-90
2021/06/28 05:33:47;;;;;;;25.60;18.48;;;17.80;88.30;;;;;;4974923;28;20239;-91
2021/06/28 05:36:13;;;;;;;22.33;17.90;;;17.90;88.50;;;;;;4975134;28;20669;-90
2021/06/28 05:38:38;;;;;;;23.67;18.60;;;18.10;88.40;;;;;;4975126;28;20672;-90
2021/06/28 05:41:04;;;;;;;23.38;17.65;;;18.20;87.60;;;;;;4975756;28;20205;-89
2021/06/28 05:43:30;;;;;;;24.17;18.73;;;18.30;86.90;;;;;;4975019;28;20178;-89
2021/06/28 05:45:55;;;;;;;23.58;16.95;;;18.40;86.90;;;;;;4974766;28;20228;-89
2021/06/28 05:48:21;;;;;;;25.58;17.85;;;18.50;86.90;;;;;;4992164;28;20205;-90
2021/06/28 05:50:48;;;;;;;21.33;15.95;;;18.70;86.10;;;;;;4975788;28;20634;-89
2021/06/28 05:53:13;;;;;;;16.85;14.68;;;18.80;86.10;;;;;;4975622;28;20205;-90
2021/06/28 05:55:39;;;;;;;18.02;15.07;;;18.90;85.40;;;;;;4974874;28;20193;-89
2021/06/28 05:58:04;;;;;;;17.15;14.73;;;19.10;85.60;;;;;;4974505;28;20178;-89
2021/06/28 06:00:30;;;;;;;20.48;15.57;;;19.20;85.40;;;;;;4974658;28;20663;-90
2021/06/28 06:02:59;;;;;;;18.35;14.00;;;19.20;85.00;;;;;;4992389;28;20170;-90
2021/06/28 06:05:25;;;;;;;17.25;15.02;;;19.30;84.60;;;;;;4973872;28;20583;-90
2021/06/28 06:07:51;;;;;;;15.50;13.75;;;19.40;84.20;;;;;;4992089;28;20168;-90
2021/06/28 06:10:18;;;;;;;18.52;14.02;;;19.50;83.90;;;;;;4974784;28;20197;-91
2021/06/28 06:12:44;;;;;;;15.48;13.25;;;19.70;84.20;;;;;;4974628;28;20209;-90
2021/06/28 06:15:11;;;;;;;14.82;13.32;;;19.90;84.00;;;;;;4974503;28;20174;-90
2021/06/28 06:17:38;;;;;;;16.42;13.13;;;20.00;82.90;;;;;;4974635;28;20265;-90
2021/06/28 06:20:05;;;;;;;18.60;12.93;;;20.10;82.80;;;;;;4973767;28;20724;-90
2021/06/28 06:22:31;;;;;;;14.38;12.50;;;20.20;82.10;;;;;;4974342;28;20179;-90
2021/06/28 06:24:57;;;;;;;13.13;11.73;;;20.30;82.40;;;;;;4974249;28;20174;-90
2021/06/28 06:27:22;;;;;;;14.27;11.85;;;20.50;81.50;;;;;;4973792;28;20214;-89
2021/06/28 06:29:48;;;;;;;13.50;11.52;;;20.60;81.70;;;;;;4974130;28;20174;-89
2021/06/28 06:32:14;;;;;;;11.77;9.98;;;20.70;81.40;;;;;;4973718;28;20174;-88
2021/06/28 06:34:40;;;;;;;16.38;10.45;;;20.80;81.80;;;;;;4973712;28;20228;-88
2021/06/28 06:37:06;;;;;;;14.68;11.10;;;20.90;79.60;;;;;;4991195;28;20551;-89
2021/06/28 06:39:32;;;;;;;11.88;9.88;;;21.00;79.90;;;;;;4973612;28;20181;-88
2021/06/28 06:41:58;;;;;;;12.90;10.30;;;21.20;79.90;;;;;;4973716;28;20193;-89
2021/06/28 06:44:24;;;;;;;13.57;9.82;;;21.20;78.80;;;;;;4991346;28;20178;-89
2021/06/28 06:46:50;;;;;;;12.20;9.52;;;21.30;79.60;;;;;;4973651;28;20202;-89
2021/06/28 06:49:16;;;;;;;11.15;9.70;;;21.50;79.40;;;;;;4973535;28;20181;-89
2021/06/28 06:51:42;;;;;;;9.60;8.60;;;21.60;77.90;;;;;;4973485;28;20205;-88
2021/06/28 06:54:09;;;;;;;10.82;9.73;;;21.70;76.80;;;;;;4973628;28;20228;-89
2021/06/28 06:56:35;;;;;;;9.68;8.57;;;21.70;75.70;;;;;;4973549;28;20185;-88
2021/06/28 06:59:01;;;;;;;17.30;9.43;;;21.90;76.20;;;;;;4973317;28;20182;-89
2021/06/28 07:01:26;;;;;;;9.40;8.43;;;22.00;77.00;;;;;;4973352;28;20194;-89
2021/06/28 07:03:52;;;;;;;9.05;8.00;;;22.00;76.70;;;;;;4973317;28;20341;-89
2021/06/28 07:06:18;;;;;;;8.25;7.45;;;22.10;75.70;;;;;;4973790;28;20202;-87
2021/06/28 07:08:43;;;;;;;10.10;7.40;;;22.20;74.80;;;;;;4974651;28;20541;-89
2021/06/28 07:11:12;;;;;;;15.93;7.53;;;22.30;73.60;;;;;;4991547;28;20190;-88
2021/06/28 07:13:50;;;;;;;8.43;6.63;;;22.40;71.80;;;;;;4993383;28;20223;-88
2021/06/28 07:16:16;;;;;;;7.93;6.63;;;22.50;73.90;;;;;;4992142;28;20203;-89
2021/06/28 07:18:42;;;;;;;6.72;6.10;;;22.60;72.60;;;;;;4994480;28;20661;-89
2021/06/28 07:21:11;;;;;;;9.25;6.78;;;22.60;71.50;;;;;;4977020;28;20218;-87
2021/06/28 07:23:38;;;;;;;10.27;6.70;;;22.60;71.60;;;;;;4977338;28;20200;-90
2021/06/28 07:26:05;;;;;;;17.42;6.50;;;22.60;72.10;;;;;;4977012;28;20704;-89
2021/06/28 07:28:32;;;;;;;8.35;6.22;;;22.70;71.20;;;;;;4977107;28;20174;-90
2021/06/28 07:30:59;;;;;;;7.53;6.20;;;22.70;71.10;;;;;;4992517;28;20198;-90
2021/06/28 07:33:26;;;;;;;10.18;7.22;;;22.70;71.70;;;;;;4976666;28;20179;-90
2021/06/28 07:35:52;;;;;;;8.35;6.13;;;22.60;72.40;;;;;;4993910;28;20638;-88
2021/06/28 07:38:18;;;;;;;8.50;6.55;;;22.50;72.90;;;;;;4977425;28;20191;-89
2021/06/28 07:40:43;;;;;;;8.18;6.00;;;22.50;73.70;;;;;;4976811;28;20202;-89
2021/06/28 07:43:09;;;;;;;6.85;6.15;;;22.50;73.00;;;;;;4976630;28;20194;-90
2021/06/28 07:45:35;;;;;;;7.43;6.70;;;22.50;74.10;;;;;;4994035;28;20723;-89
2021/06/28 07:48:02;;;;;;;6.70;6.07;;;22.40;73.10;;;;;;4976841;28;20178;-89
2021/06/28 07:50:29;;;;;;;8.13;6.43;;;22.50;73.50;;;;;;4976964;28;20200;-88
2021/06/28 07:52:54;;;;;;;9.50;6.60;;;22.60;73.40;;;;;;4977106;28;20189;-89
2021/06/28 07:55:20;;;;;;;7.00;6.30;;;22.70;71.40;;;;;;4976111;28;20170;-90
2021/06/28 07:57:46;;;;;;;12.85;6.97;;;22.80;73.20;;;;;;4976050;28;20228;-90
2021/06/28 08:00:18;;;;;;;10.05;6.57;;;23.00;73.50;;;;;;4993218;28;20198;-90
2021/06/28 08:02:44;;;;;;;8.90;7.35;;;23.10;71.30;;;;;;4975966;28;20175;-89
2021/06/28 08:05:11;;;;;;;9.27;6.85;;;23.10;71.20;;;;;;4993182;28;20174;-90
2021/06/28 08:07:37;;;;;;;12.35;6.97;;;23.20;72.40;;;;;;4993626;28;20173;-89
2021/06/28 08:10:05;;;;;;;9.52;7.63;;;23.40;73.00;;;;;;4975796;28;20199;-89
2021/06/28 08:12:31;;;;;;;7.43;6.43;;;23.50;70.00;;;;;;4976260;28;20181;-89
2021/06/28 08:14:58;;;;;;;10.73;6.63;;;23.60;69.20;;;;;;4975758;28;20178;-89
2021/06/28 08:17:23;;;;;;;7.55;5.90;;;23.70;69.00;;;;;;4993335;28;20174;-89
2021/06/28 08:19:49;;;;;;;13.52;6.05;;;23.80;68.40;;;;;;4975601;28;20223;-89
2021/06/28 08:22:16;;;;;;;11.82;6.53;;;24.00;69.10;;;;;;4993238;28;20528;-89
2021/06/28 08:24:42;;;;;;;6.50;5.90;;;24.10;67.90;;;;;;4975834;28;20174;-89
2021/06/28 08:27:09;;;;;;;9.30;5.85;;;24.10;67.70;;;;;;4992722;28;20213;-88
2021/06/28 08:29:35;;;;;;;6.88;5.80;;;24.20;68.30;;;;;;4992454;28;20174;-88
2021/06/28 08:32:00;;;;;;;7.20;5.82;;;24.40;67.00;;;;;;4975326;28;20181;-88
2021/06/28 08:34:26;;;;;;;5.93;5.28;;;24.50;65.10;;;;;;4975738;28;20174;-89
2021/06/28 08:36:53;;;;;;;8.82;6.20;;;24.60;65.30;;;;;;4992838;28;20261;-89
2021/06/28 08:39:19;;;;;;;10.07;5.43;;;24.70;65.40;;;;;;4975505;28;20204;-89
2021/06/28 08:41:52;;;;;;;5.50;5.00;;;24.70;64.80;;;;;;4975253;28;20277;-89
2021/06/28 08:44:18;;;;;;;8.50;5.15;;;24.90;63.30;;;;;;4975274;28;20166;-89
2021/06/28 08:46:44;;;;;;;7.45;5.22;;;25.00;64.50;;;;;;4975182;28;20209;-89
2021/06/28 08:49:10;;;;;;;6.38;4.93;;;25.10;65.00;;;;;;4975156;28;20649;-89
2021/06/28 08:51:36;;;;;;;9.27;5.10;;;25.20;64.20;;;;;;4975117;28;20214;-89
2021/06/28 08:54:14;;;;;;;7.05;5.88;;;25.20;61.70;;;;;;4975262;28;20220;-88
2021/06/28 08:56:42;;;;;;;12.75;6.20;;;25.30;62.80;;;;;;4992992;28;20161;-89
2021/06/28 08:59:08;;;;;;;7.03;5.55;;;25.40;60.20;;;;;;4975001;28;20261;-90
2021/06/28 09:01:35;;;;;;;7.55;5.65;;;25.50;60.50;;;;;;4975330;28;20761;-90
2021/06/28 09:04:02;;;;;;;5.50;4.70;;;25.60;61.60;;;;;;4975138;28;20178;-87
2021/06/28 09:06:29;;;;;;;6.75;4.55;;;25.70;61.40;;;;;;4992584;28;20198;-87
2021/06/28 09:09:04;;;;;;;5.47;4.80;;;25.70;60.80;;;;;;4992487;28;20171;-88
2021/06/28 09:11:34;;;;;;;11.48;4.82;;;25.90;63.00;;;;;;4992387;28;20194;-89
2021/06/28 09:14:07;;;;;;;6.70;3.95;;;25.90;58.30;;;;;;4974958;28;20271;-88
2021/06/28 09:16:35;;;;;;;12.77;4.63;;;26.00;60.00;;;;;;4992591;28;20186;-88
2021/06/28 09:19:06;;;;;;;8.95;4.13;;;26.10;59.40;;;;;;4975257;28;20178;-87
2021/06/28 09:21:46;;;;;;;9.57;4.45;;;26.20;60.40;;;;;;4974741;28;20716;-88
2021/06/28 09:24:24;;;;;;;8.23;3.72;;;26.30;57.20;;;;;;4992310;28;20186;-87
2021/06/28 09:26:50;;;;;;;5.18;3.90;;;26.40;57.30;;;;;;4975020;28;20209;-88
2021/06/28 09:29:16;;;;;;;6.50;3.88;;;26.50;57.20;;;;;;4974954;28;20175;-87
2021/06/28 09:31:44;;;;;;;9.35;4.40;;;26.60;55.70;;;;;;4991971;28;20186;-85
2021/06/28 09:34:21;;;;;;;7.28;4.00;;;26.70;57.60;;;;;;4991603;28;20170;-85
2021/06/28 09:36:55;;;;;;;5.35;4.20;;;26.70;53.30;;;;;;4974525;28;20181;-85
2021/06/28 09:39:21;;;;;;;5.35;3.60;;;26.90;56.50;;;;;;4990897;28;20638;-85
2021/06/28 09:41:48;;;;;;;5.90;3.67;;;26.70;55.30;;;;;;4973979;28;20738;-84
2021/06/28 09:44:14;;;;;;;5.97;4.28;;;26.70;56.00;;;;;;4991516;28;20177;-84
2021/06/28 09:46:40;;;;;;;4.00;3.60;;;26.70;57.30;;;;;;4991847;28;20676;-84
2021/06/28 09:49:07;;;;;;;4.53;3.80;;;26.80;53.60;;;;;;4992051;28;20174;-85
2021/06/28 09:51:36;;;;;;;6.85;4.38;;;27.10;54.40;;;;;;4991442;28;20216;-85
2021/06/28 09:54:14;;;;;;;5.15;3.80;;;27.20;53.20;;;;;;4991513;28;20177;-85
2021/06/28 09:56:50;;;;;;;6.47;3.58;;;27.20;52.00;;;;;;4991728;28;20255;-85
2021/06/28 09:59:32;;;;;;;5.15;3.60;;;27.30;51.20;;;;;;4973901;28;20166;-85
2021/06/28 10:02:19;;;;;;;3.47;3.17;;;27.60;50.70;;;;;;4991327;28;20170;-85
2021/06/28 10:05:18;;;;;;;10.88;3.70;;;27.70;48.90;;;;;;4991368;28;20181;-85
2021/06/28 10:07:44;;;;;;;7.57;3.97;;;27.70;49.50;;;;;;4973758;28;20604;-85
2021/06/28 10:10:18;;;;;;;6.65;3.47;;;27.80;51.00;;;;;;4973703;28;20332;-85
2021/06/28 10:12:52;;;;;;;4.82;3.90;;;28.10;48.90;;;;;;4991143;28;20559;-85
2021/06/28 10:15:21;;;;;;;5.13;3.58;;;28.00;48.70;;;;;;4991331;28;20216;-85
2021/06/28 10:17:47;;;;;;;4.03;3.45;;;28.20;49.20;;;;;;4990990;28;20170;-84
2021/06/28 10:20:16;;;;;;;4.03;3.20;;;28.20;48.20;;;;;;4991563;22;20251;-89
2021/06/28 10:22:43;;;;;;;8.07;3.40;;;28.10;46.90;;;;;;4952634;28;20172;-87
2021/06/28 10:25:10;;;;;;;3.88;3.47;;;28.10;49.20;;;;;;4952238;28;20230;-87
2021/06/28 10:27:36;;;;;;;3.53;3.22;;;28.20;49.50;;;;;;4967147;28;20673;-87
2021/06/28 10:30:09;;;;;;;3.30;3.10;;;28.50;48.00;;;;;;4952176;28;20597;-87
2021/06/28 10:32:35;;;;;;;4.63;3.15;;;28.80;46.70;;;;;;4950955;29;20651;-87
2021/06/28 10:35:02;;;;;;;3.80;3.50;;;28.90;45.50;;;;;;4952162;28;20199;-87
2021/06/28 10:37:48;;;;;;;5.22;3.05;;;28.70;45.80;;;;;;4952184;28;20172;-88
2021/06/28 10:40:15;;;;;;;3.35;3.05;;;28.70;46.70;;;;;;4950823;29;20176;-87
2021/06/28 10:42:45;;;;;;;5.07;3.38;;;28.70;45.50;;;;;;4950860;29;20597;-87
2021/06/28 10:45:13;;;;;;;4.55;3.05;;;28.80;46.30;;;;;;4952076;28;20195;-88
2021/06/28 10:48:00;;;;;;;5.80;3.47;;;28.90;45.00;;;;;;4951971;28;20246;-87
2021/06/28 10:51:02;;;;;;;5.57;2.80;;;28.90;45.20;;;;;;4951885;28;20652;-87
2021/06/28 10:53:33;;;;;;;5.10;2.88;;;29.00;42.20;;;;;;4954240;29;20167;-88
2021/06/28 10:58:55;;;;;;;3.05;2.72;;;28.90;45.80;;;;;;4955603;29;20221;-88
2021/06/28 11:01:38;;;;;;;8.13;3.05;;;28.90;45.20;;;;;;4954007;28;20282;-88
2021/06/28 11:04:07;;;;;;;3.63;3.08;;;29.20;44.70;;;;;;4955290;29;20202;-88
2021/06/28 11:06:32;;;;;;;5.85;3.42;;;29.40;45.50;;;;;;4955398;29;20207;-88
2021/06/28 11:09:06;;;;;;;5.55;3.47;;;29.40;45.50;;;;;;4955221;28;20524;-88
2021/06/28 11:12:02;;;;;;;6.40;3.33;;;29.50;45.30;;;;;;4954411;29;20202;-88
2021/06/28 11:14:27;;;;;;;6.70;3.75;;;29.40;45.10;;;;;;4954494;29;20278;-88
2021/06/28 11:16:58;;;;;;;7.35;3.90;;;29.20;44.60;;;;;;4953803;29;20227;-88
2021/06/28 11:20:06;;;;;;;4.80;3.40;;;29.20;47.30;;;;;;4954974;28;20164;-88
2021/06/28 11:22:34;;;;;;;6.18;3.47;;;29.00;44.00;;;;;;4955045;28;20215;-88
2021/06/28 11:25:12;;;;;;;9.73;4.10;;;29.10;45.60;;;;;;4954800;29;20171;-88
2021/06/28 11:27:58;;;;;;;4.32;3.65;;;29.40;46.70;;;;;;4953698;29;20179;-88
2021/06/28 11:30:29;;;;;;;4.13;3.80;;;29.50;45.70;;;;;;4953548;29;20223;-88
2021/06/28 11:32:56;;;;;;;4.03;3.28;;;29.50;45.80;;;;;;4953577;29;20194;-87
2021/06/28 11:35:34;;;;;;;4.18;2.80;;;29.60;44.00;;;;;;4954685;28;20245;-87
2021/06/28 11:38:21;;;;;;;5.43;2.70;;;29.70;43.10;;;;;;4953472;29;20210;-87
2021/06/28 11:40:56;;;;;;;2.70;2.50;;;29.80;44.60;;;;;;4953331;28;20698;-87
2021/06/28 11:43:40;;;;;;;3.95;3.08;;;30.10;42.00;;;;;;4953456;29;20221;-87
2021/06/28 11:46:21;;;;;;;5.45;2.58;;;30.00;41.80;;;;;;4954458;29;20199;-87
2021/06/28 11:48:58;;;;;;;4.07;3.50;;;30.10;42.70;;;;;;4953866;29;20164;-88
2021/06/28 11:51:40;;;;;;;5.10;2.95;;;30.20;41.90;;;;;;4954453;28;20191;-88
2021/06/28 11:54:09;;;;;;;4.28;2.70;;;29.90;40.00;;;;;;4954764;28;20198;-88
2021/06/28 11:56:36;;;;;;;3.33;2.83;;;29.20;40.70;;;;;;4953500;29;20229;-87
2021/06/28 11:59:06;;;;;;;3.53;3.22;;;28.90;44.40;;;;;;4953271;29;20188;-88
2021/06/28 12:01:37;;;;;;;2.97;2.65;;;29.10;45.80;;;;;;4953159;29;20771;-88
2021/06/28 12:04:05;;;;;;;4.18;2.70;;;29.50;41.60;;;;;;4953529;28;20168;-88
2021/06/28 12:06:37;;;;;;;4.72;3.15;;;29.80;42.70;;;;;;4953228;29;20321;-87
2021/06/28 12:09:14;;;;;;;4.53;2.88;;;29.90;42.20;;;;;;4954349;28;20164;-88
2021/06/28 12:11:59;;;;;;;4.20;3.40;;;30.20;38.90;;;;;;4953002;29;20690;-88
2021/06/28 12:14:38;;;;;;;5.90;3.10;;;30.20;40.30;;;;;;4953807;29;20167;-88
2021/06/28 12:17:15;;;;;;;2.88;2.63;;;30.30;42.50;;;;;;4954106;28;20210;-88
2021/06/28 12:19:43;;;;;;;3.63;2.55;;;30.10;40.80;;;;;;4952872;29;20546;-88
2021/06/28 12:22:17;;;;;;;4.82;2.65;;;30.00;40.80;;;;;;4953873;28;20215;-88
2021/06/28 12:24:46;;;;;;;3.08;2.60;;;30.10;42.50;;;;;;4952989;29;20198;-88
2021/06/28 12:27:14;;;;;;;2.92;2.65;;;30.30;40.50;;;;;;4952902;29;20210;-88
2021/06/28 12:29:43;;;;;;;2.80;2.60;;;30.40;39.70;;;;;;4952729;29;20185;-88
2021/06/28 12:32:25;;;;;;;5.22;2.40;;;30.40;40.50;;;;;;4952655;29;20204;-88
2021/06/28 12:34:54;;;;;;;7.97;2.78;;;30.80;39.90;;;;;;4953859;28;20179;-88
2021/06/28 12:37:25;;;;;;;4.47;2.72;;;30.70;40.90;;;;;;4954088;28;20541;-85
2021/06/28 12:39:52;;;;;;;3.30;2.63;;;30.70;38.80;;;;;;4952461;29;20186;-85
2021/06/28 12:42:23;;;;;;;2.95;2.58;;;30.90;40.20;;;;;;4952384;29;20206;-85
2021/06/28 12:44:49;;;;;;;4.68;2.60;;;30.90;37.80;;;;;;4953600;28;20258;-85
2021/06/28 12:47:19;;;;;;;5.07;3.05;;;31.10;39.10;;;;;;4953536;28;20203;-85